sensor_id;sensor_type;location;lat;lon;timestamp;temperature;humidity
37560;DHT22;23398;50.928;7.084;2023-04-25T00:01:56;10.60;68.20
37560;DHT22;23398;50.928;7.084;2023-04-25T00:04:22;10.50;68.20
37560;DHT22;23398;50.928;7.084;2023-04-25T00:06:47;10.50;68.20
37560;DHT22;23398;50.928;7.084;2023-04-25T00:09:13;10.50;68.50
37560;DHT22;23398;50.928;7.084;2023-04-25T00:11:40;10.40;68.50
37560;DHT22;23398;50.928;7.084;2023-04-25T00:14:06;10.40;68.70
37560;DHT22;23398;50.928;7.084;2023-04-25T00:16:32;10.40;68.90
37560;DHT22;23398;50.928;7.084;2023-04-25T00:18:59;10.40;69.10
37560;DHT22;23398;50.928;7.084;2023-04-25T00:21:25;10.40;69.30
37560;DHT22;23398;50.928;7.084;2023-04-25T00:23:52;10.40;69.30
37560;DHT22;23398;50.928;7.084;2023-04-25T00:26:18;10.30;69.20
37560;DHT22;23398;50.928;7.084;2023-04-25T00:28:43;10.40;69.20
37560;DHT22;23398;50.928;7.084;2023-04-25T00:31:09;10.30;69.00
37560;DHT22;23398;50.928;7.084;2023-04-25T00:33:35;10.40;68.90
37560;DHT22;23398;50.928;7.084;2023-04-25T00:36:00;10.30;68.80
37560;DHT22;23398;50.928;7.084;2023-04-25T00:38:26;10.30;68.90
37560;DHT22;23398;50.928;7.084;2023-04-25T00:40:51;10.20;68.80
37560;DHT22;23398;50.928;7.084;2023-04-25T00:43:18;10.10;68.70
37560;DHT22;23398;50.928;7.084;2023-04-25T00:45:43;10.10;68.80
37560;DHT22;23398;50.928;7.084;2023-04-25T00:48:13;10.00;68.60
37560;DHT22;23398;50.928;7.084;2023-04-25T00:50:39;10.00;68.60
37560;DHT22;23398;50.928;7.084;2023-04-25T00:53:05;9.90;69.60
37560;DHT22;23398;50.928;7.084;2023-04-25T00:55:31;9.90;69.70
37560;DHT22;23398;50.928;7.084;2023-04-25T00:57:59;9.80;69.80
37560;DHT22;23398;50.928;7.084;2023-04-25T01:00:25;9.70;70.60
37560;DHT22;23398;50.928;7.084;2023-04-25T01:02:52;9.70;70.00
37560;DHT22;23398;50.928;7.084;2023-04-25T01:05:17;9.60;70.00
37560;DHT22;23398;50.928;7.084;2023-04-25T01:07:44;9.50;69.90
37560;DHT22;23398;50.928;7.084;2023-04-25T01:10:10;9.40;69.90
37560;DHT22;23398;50.928;7.084;2023-04-25T01:12:36;9.30;69.80
37560;DHT22;23398;50.928;7.084;2023-04-25T01:15:02;9.20;70.00
37560;DHT22;23398;50.928;7.084;2023-04-25T01:17:28;9.10;70.20
37560;DHT22;23398;50.928;7.084;2023-04-25T01:19:54;9.00;70.40
37560;DHT22;23398;50.928;7.084;2023-04-25T01:22:20;8.90;70.80
37560;DHT22;23398;50.928;7.084;2023-04-25T01:24:46;8.90;71.40
37560;DHT22;23398;50.928;7.084;2023-04-25T01:27:12;8.80;71.80
37560;DHT22;23398;50.928;7.084;2023-04-25T01:29:38;8.70;72.00
37560;DHT22;23398;50.928;7.084;2023-04-25T01:32:05;8.70;72.30
37560;DHT22;23398;50.928;7.084;2023-04-25T01:34:31;8.60;72.60
37560;DHT22;23398;50.928;7.084;2023-04-25T01:36:59;8.60;73.30
37560;DHT22;23398;50.928;7.084;2023-04-25T01:39:25;8.60;74.10
37560;DHT22;23398;50.928;7.084;2023-04-25T01:41:50;8.60;74.70
37560;DHT22;23398;50.928;7.084;2023-04-25T01:44:16;8.60;75.50
37560;DHT22;23398;50.928;7.084;2023-04-25T01:46:42;8.60;76.20
37560;DHT22;23398;50.928;7.084;2023-04-25T01:49:07;8.70;76.90
37560;DHT22;23398;50.928;7.084;2023-04-25T01:51:33;8.80;77.90
37560;DHT22;23398;50.928;7.084;2023-04-25T01:53:59;8.90;77.20
37560;DHT22;23398;50.928;7.084;2023-04-25T01:56:25;9.00;77.40
37560;DHT22;23398;50.928;7.084;2023-04-25T01:58:51;9.10;77.50
37560;DHT22;23398;50.928;7.084;2023-04-25T02:01:17;9.20;77.40
37560;DHT22;23398;50.928;7.084;2023-04-25T02:03:42;9.30;77.00
37560;DHT22;23398;50.928;7.084;2023-04-25T02:06:08;9.30;76.60
37560;DHT22;23398;50.928;7.084;2023-04-25T02:08:34;9.40;76.20
37560;DHT22;23398;50.928;7.084;2023-04-25T02:10:59;9.40;75.60
37560;DHT22;23398;50.928;7.084;2023-04-25T02:13:25;9.40;75.20
37560;DHT22;23398;50.928;7.084;2023-04-25T02:15:50;9.40;75.00
37560;DHT22;23398;50.928;7.084;2023-04-25T02:18:16;9.40;74.70
37560;DHT22;23398;50.928;7.084;2023-04-25T02:20:42;9.40;74.50
37560;DHT22;23398;50.928;7.084;2023-04-25T02:23:08;9.30;74.20
37560;DHT22;23398;50.928;7.084;2023-04-25T02:25:34;9.30;74.20
37560;DHT22;23398;50.928;7.084;2023-04-25T02:27:59;9.30;74.00
37560;DHT22;23398;50.928;7.084;2023-04-25T02:30:25;9.20;74.20
37560;DHT22;23398;50.928;7.084;2023-04-25T02:32:50;9.20;74.40
37560;DHT22;23398;50.928;7.084;2023-04-25T02:35:16;9.10;74.50
37560;DHT22;23398;50.928;7.084;2023-04-25T02:37:42;9.10;74.80
37560;DHT22;23398;50.928;7.084;2023-04-25T02:40:08;9.10;75.20
37560;DHT22;23398;50.928;7.084;2023-04-25T02:42:34;9.10;75.50
37560;DHT22;23398;50.928;7.084;2023-04-25T02:44:59;9.10;75.80
37560;DHT22;23398;50.928;7.084;2023-04-25T02:47:25;9.10;75.90
37560;DHT22;23398;50.928;7.084;2023-04-25T02:49:51;9.20;76.20
37560;DHT22;23398;50.928;7.084;2023-04-25T02:52:17;9.20;76.30
37560;DHT22;23398;50.928;7.084;2023-04-25T02:54:42;9.20;76.40
37560;DHT22;23398;50.928;7.084;2023-04-25T02:57:08;9.20;76.60
37560;DHT22;23398;50.928;7.084;2023-04-25T02:59:34;9.30;76.60
37560;DHT22;23398;50.928;7.084;2023-04-25T03:02:00;9.30;76.50
37560;DHT22;23398;50.928;7.084;2023-04-25T03:04:26;9.40;76.30
37560;DHT22;23398;50.928;7.084;2023-04-25T03:06:52;9.40;76.10
37560;DHT22;23398;50.928;7.084;2023-04-25T03:09:17;9.50;76.20
37560;DHT22;23398;50.928;7.084;2023-04-25T03:11:44;9.50;75.90
37560;DHT22;23398;50.928;7.084;2023-04-25T03:14:10;9.50;75.60
37560;DHT22;23398;50.928;7.084;2023-04-25T03:16:36;9.50;75.50
37560;DHT22;23398;50.928;7.084;2023-04-25T03:19:02;9.60;75.40
37560;DHT22;23398;50.928;7.084;2023-04-25T03:21:28;9.60;75.40
37560;DHT22;23398;50.928;7.084;2023-04-25T03:23:53;9.60;75.40
37560;DHT22;23398;50.928;7.084;2023-04-25T03:26:19;9.60;75.30
37560;DHT22;23398;50.928;7.084;2023-04-25T03:28:45;9.70;75.40
37560;DHT22;23398;50.928;7.084;2023-04-25T03:31:11;9.70;75.30
37560;DHT22;23398;50.928;7.084;2023-04-25T03:33:37;9.70;75.20
37560;DHT22;23398;50.928;7.084;2023-04-25T03:36:02;9.80;75.10
37560;DHT22;23398;50.928;7.084;2023-04-25T03:38:28;9.80;74.90
37560;DHT22;23398;50.928;7.084;2023-04-25T03:40:54;9.80;74.90
37560;DHT22;23398;50.928;7.084;2023-04-25T03:43:21;9.90;74.90
37560;DHT22;23398;50.928;7.084;2023-04-25T03:45:47;9.90;74.90
37560;DHT22;23398;50.928;7.084;2023-04-25T03:48:12;9.90;74.90
37560;DHT22;23398;50.928;7.084;2023-04-25T03:50:38;9.90;74.70
37560;DHT22;23398;50.928;7.084;2023-04-25T03:53:03;10.00;73.50
37560;DHT22;23398;50.928;7.084;2023-04-25T03:55:29;10.00;73.40
37560;DHT22;23398;50.928;7.084;2023-04-25T03:57:55;10.00;73.50
37560;DHT22;23398;50.928;7.084;2023-04-25T04:00:20;10.00;73.40
37560;DHT22;23398;50.928;7.084;2023-04-25T04:02:46;10.10;73.40
37560;DHT22;23398;50.928;7.084;2023-04-25T04:05:11;10.10;73.50
37560;DHT22;23398;50.928;7.084;2023-04-25T04:07:37;10.10;73.60
37560;DHT22;23398;50.928;7.084;2023-04-25T04:10:09;10.10;73.70
37560;DHT22;23398;50.928;7.084;2023-04-25T04:12:35;10.20;73.80
37560;DHT22;23398;50.928;7.084;2023-04-25T04:15:02;10.20;73.60
37560;DHT22;23398;50.928;7.084;2023-04-25T04:17:29;10.20;73.60
37560;DHT22;23398;50.928;7.084;2023-04-25T04:19:54;10.20;73.80
37560;DHT22;23398;50.928;7.084;2023-04-25T04:22:20;10.30;74.00
37560;DHT22;23398;50.928;7.084;2023-04-25T04:24:46;10.30;74.00
37560;DHT22;23398;50.928;7.084;2023-04-25T04:27:12;10.30;74.10
37560;DHT22;23398;50.928;7.084;2023-04-25T04:29:38;10.30;74.00
37560;DHT22;23398;50.928;7.084;2023-04-25T04:32:04;10.30;73.90
37560;DHT22;23398;50.928;7.084;2023-04-25T04:34:30;10.40;74.20
37560;DHT22;23398;50.928;7.084;2023-04-25T04:36:56;10.40;74.20
37560;DHT22;23398;50.928;7.084;2023-04-25T04:39:22;10.50;74.40
37560;DHT22;23398;50.928;7.084;2023-04-25T04:41:48;10.50;74.40
37560;DHT22;23398;50.928;7.084;2023-04-25T04:44:14;10.50;74.20
37560;DHT22;23398;50.928;7.084;2023-04-25T04:46:40;10.60;74.50
37560;DHT22;23398;50.928;7.084;2023-04-25T04:49:10;10.60;74.40
37560;DHT22;23398;50.928;7.084;2023-04-25T04:51:36;10.70;74.40
37560;DHT22;23398;50.928;7.084;2023-04-25T04:54:02;10.70;74.40
37560;DHT22;23398;50.928;7.084;2023-04-25T04:56:29;10.80;74.50
37560;DHT22;23398;50.928;7.084;2023-04-25T04:58:57;10.80;74.60
37560;DHT22;23398;50.928;7.084;2023-04-25T05:01:23;10.90;74.70
37560;DHT22;23398;50.928;7.084;2023-04-25T05:03:48;10.90;74.60
37560;DHT22;23398;50.928;7.084;2023-04-25T05:06:16;10.90;74.40
37560;DHT22;23398;50.928;7.084;2023-04-25T05:08:42;11.00;74.60
37560;DHT22;23398;50.928;7.084;2023-04-25T05:11:08;11.00;74.10
37560;DHT22;23398;50.928;7.084;2023-04-25T05:13:33;11.10;74.10
37560;DHT22;23398;50.928;7.084;2023-04-25T05:15:59;11.10;74.00
37560;DHT22;23398;50.928;7.084;2023-04-25T05:18:24;11.20;74.00
37560;DHT22;23398;50.928;7.084;2023-04-25T05:20:50;11.20;73.80
37560;DHT22;23398;50.928;7.084;2023-04-25T05:23:16;11.30;73.80
37560;DHT22;23398;50.928;7.084;2023-04-25T05:25:41;11.30;73.50
37560;DHT22;23398;50.928;7.084;2023-04-25T05:28:07;11.30;73.20
37560;DHT22;23398;50.928;7.084;2023-04-25T05:30:34;11.40;73.00
37560;DHT22;23398;50.928;7.084;2023-04-25T05:32:59;11.40;73.00
37560;DHT22;23398;50.928;7.084;2023-04-25T05:35:25;11.40;72.70
37560;DHT22;23398;50.928;7.084;2023-04-25T05:37:51;11.40;72.60
37560;DHT22;23398;50.928;7.084;2023-04-25T05:40:17;11.40;72.50
37560;DHT22;23398;50.928;7.084;2023-04-25T05:42:42;11.50;72.40
37560;DHT22;23398;50.928;7.084;2023-04-25T05:45:08;11.50;72.60
37560;DHT22;23398;50.928;7.084;2023-04-25T05:47:34;11.60;72.70
37560;DHT22;23398;50.928;7.084;2023-04-25T05:49:59;11.60;72.80
37560;DHT22;23398;50.928;7.084;2023-04-25T05:52:25;11.60;72.70
37560;DHT22;23398;50.928;7.084;2023-04-25T05:54:50;11.70;72.50
37560;DHT22;23398;50.928;7.084;2023-04-25T05:57:23;11.80;72.30
37560;DHT22;23398;50.928;7.084;2023-04-25T05:59:49;11.80;72.10
37560;DHT22;23398;50.928;7.084;2023-04-25T06:02:15;11.90;72.00
37560;DHT22;23398;50.928;7.084;2023-04-25T06:04:41;11.90;71.90
37560;DHT22;23398;50.928;7.084;2023-04-25T06:07:07;12.00;71.70
37560;DHT22;23398;50.928;7.084;2023-04-25T06:09:33;12.10;71.50
37560;DHT22;23398;50.928;7.084;2023-04-25T06:11:59;12.20;71.30
37560;DHT22;23398;50.928;7.084;2023-04-25T06:14:25;12.30;70.90
37560;DHT22;23398;50.928;7.084;2023-04-25T06:16:50;12.30;70.60
37560;DHT22;23398;50.928;7.084;2023-04-25T06:19:16;12.40;70.30
37560;DHT22;23398;50.928;7.084;2023-04-25T06:21:43;12.40;69.90
37560;DHT22;23398;50.928;7.084;2023-04-25T06:24:09;12.50;69.70
37560;DHT22;23398;50.928;7.084;2023-04-25T06:26:35;12.50;69.50
37560;DHT22;23398;50.928;7.084;2023-04-25T06:29:01;12.60;69.40
37560;DHT22;23398;50.928;7.084;2023-04-25T06:31:27;12.60;69.50
37560;DHT22;23398;50.928;7.084;2023-04-25T06:33:54;12.70;69.50
37560;DHT22;23398;50.928;7.084;2023-04-25T06:36:20;12.80;69.80
37560;DHT22;23398;50.928;7.084;2023-04-25T06:38:50;13.00;70.30
37560;DHT22;23398;50.928;7.084;2023-04-25T06:41:17;13.20;70.20
37560;DHT22;23398;50.928;7.084;2023-04-25T06:43:42;13.50;70.00
37560;DHT22;23398;50.928;7.084;2023-04-25T06:46:08;13.80;69.30
37560;DHT22;23398;50.928;7.084;2023-04-25T06:48:33;14.00;69.20
37560;DHT22;23398;50.928;7.084;2023-04-25T06:50:59;14.30;67.90
37560;DHT22;23398;50.928;7.084;2023-04-25T06:53:25;14.50;66.60
37560;DHT22;23398;50.928;7.084;2023-04-25T06:55:50;14.70;65.70
37560;DHT22;23398;50.928;7.084;2023-04-25T06:58:16;14.90;64.70
37560;DHT22;23398;50.928;7.084;2023-04-25T07:00:41;15.00;64.10
37560;DHT22;23398;50.928;7.084;2023-04-25T07:03:07;15.30;64.90
37560;DHT22;23398;50.928;7.084;2023-04-25T07:05:32;15.70;66.50
37560;DHT22;23398;50.928;7.084;2023-04-25T07:07:58;16.20;67.70
37560;DHT22;23398;50.928;7.084;2023-04-25T07:10:24;17.00;68.20
37560;DHT22;23398;50.928;7.084;2023-04-25T07:12:50;17.90;68.50
37560;DHT22;23398;50.928;7.084;2023-04-25T07:15:16;19.00;67.50
37560;DHT22;23398;50.928;7.084;2023-04-25T07:17:41;20.10;64.80
37560;DHT22;23398;50.928;7.084;2023-04-25T07:20:08;21.00;60.70
37560;DHT22;23398;50.928;7.084;2023-04-25T07:22:34;21.70;58.00
37560;DHT22;23398;50.928;7.084;2023-04-25T07:25:00;22.30;56.00
37560;DHT22;23398;50.928;7.084;2023-04-25T07:27:25;22.80;55.20
37560;DHT22;23398;50.928;7.084;2023-04-25T07:29:51;23.10;53.70
37560;DHT22;23398;50.928;7.084;2023-04-25T07:32:17;23.40;52.50
37560;DHT22;23398;50.928;7.084;2023-04-25T07:34:42;23.60;52.00
37560;DHT22;23398;50.928;7.084;2023-04-25T07:37:08;23.70;50.60
37560;DHT22;23398;50.928;7.084;2023-04-25T07:39:33;23.80;49.30
37560;DHT22;23398;50.928;7.084;2023-04-25T07:41:59;23.70;48.30
37560;DHT22;23398;50.928;7.084;2023-04-25T07:44:25;23.40;47.40
37560;DHT22;23398;50.928;7.084;2023-04-25T07:46:51;23.00;47.00
37560;DHT22;23398;50.928;7.084;2023-04-25T07:49:16;22.60;47.10
37560;DHT22;23398;50.928;7.084;2023-04-25T07:51:42;22.10;47.00
37560;DHT22;23398;50.928;7.084;2023-04-25T07:54:14;21.60;47.30
37560;DHT22;23398;50.928;7.084;2023-04-25T07:56:40;21.10;47.40
37560;DHT22;23398;50.928;7.084;2023-04-25T07:59:05;20.70;47.60
37560;DHT22;23398;50.928;7.084;2023-04-25T08:01:31;20.50;48.70
37560;DHT22;23398;50.928;7.084;2023-04-25T08:03:57;20.30;49.70
37560;DHT22;23398;50.928;7.084;2023-04-25T08:06:22;20.20;50.20
37560;DHT22;23398;50.928;7.084;2023-04-25T08:08:48;20.30;50.80
37560;DHT22;23398;50.928;7.084;2023-04-25T08:11:13;20.40;50.50
37560;DHT22;23398;50.928;7.084;2023-04-25T08:13:39;20.60;50.10
37560;DHT22;23398;50.928;7.084;2023-04-25T08:16:04;20.70;49.60
37560;DHT22;23398;50.928;7.084;2023-04-25T08:18:30;20.90;49.70
37560;DHT22;23398;50.928;7.084;2023-04-25T08:20:56;21.10;49.30
37560;DHT22;23398;50.928;7.084;2023-04-25T08:23:22;21.30;49.10
37560;DHT22;23398;50.928;7.084;2023-04-25T08:25:48;21.60;50.10
37560;DHT22;23398;50.928;7.084;2023-04-25T08:28:14;21.80;49.20
37560;DHT22;23398;50.928;7.084;2023-04-25T08:30:40;22.10;48.10
37560;DHT22;23398;50.928;7.084;2023-04-25T08:33:06;22.20;46.90
37560;DHT22;23398;50.928;7.084;2023-04-25T08:35:32;22.20;46.00
37560;DHT22;23398;50.928;7.084;2023-04-25T08:37:58;22.20;45.80
37560;DHT22;23398;50.928;7.084;2023-04-25T08:40:27;22.20;45.60
37560;DHT22;23398;50.928;7.084;2023-04-25T08:42:56;22.20;44.60
37560;DHT22;23398;50.928;7.084;2023-04-25T08:45:22;22.00;44.20
37560;DHT22;23398;50.928;7.084;2023-04-25T08:47:51;21.90;44.60
37560;DHT22;23398;50.928;7.084;2023-04-25T08:50:17;21.70;44.30
37560;DHT22;23398;50.928;7.084;2023-04-25T08:52:45;21.60;44.40
37560;DHT22;23398;50.928;7.084;2023-04-25T08:55:13;21.30;43.80
37560;DHT22;23398;50.928;7.084;2023-04-25T08:57:41;20.90;44.00
37560;DHT22;23398;50.928;7.084;2023-04-25T09:00:09;20.60;44.20
37560;DHT22;23398;50.928;7.084;2023-04-25T09:02:35;20.30;44.00
37560;DHT22;23398;50.928;7.084;2023-04-25T09:05:02;19.90;44.10
37560;DHT22;23398;50.928;7.084;2023-04-25T09:07:29;19.50;44.50
37560;DHT22;23398;50.928;7.084;2023-04-25T09:09:55;19.10;44.70
37560;DHT22;23398;50.928;7.084;2023-04-25T09:12:21;18.80;45.30
37560;DHT22;23398;50.928;7.084;2023-04-25T09:17:29;18.00;46.30
37560;DHT22;23398;50.928;7.084;2023-04-25T09:19:55;17.80;46.40
37560;DHT22;23398;50.928;7.084;2023-04-25T09:22:30;17.50;46.50
37560;DHT22;23398;50.928;7.084;2023-04-25T09:24:56;17.20;47.20
37560;DHT22;23398;50.928;7.084;2023-04-25T09:27:21;17.00;47.50
37560;DHT22;23398;50.928;7.084;2023-04-25T09:29:48;16.80;47.80
37560;DHT22;23398;50.928;7.084;2023-04-25T09:32:22;16.60;48.00
37560;DHT22;23398;50.928;7.084;2023-04-25T09:34:50;16.50;48.30
37560;DHT22;23398;50.928;7.084;2023-04-25T09:37:21;16.40;48.60
37560;DHT22;23398;50.928;7.084;2023-04-25T09:39:49;16.30;49.20
37560;DHT22;23398;50.928;7.084;2023-04-25T09:42:15;16.40;49.70
37560;DHT22;23398;50.928;7.084;2023-04-25T09:44:43;16.50;50.40
37560;DHT22;23398;50.928;7.084;2023-04-25T09:47:11;16.70;50.40
37560;DHT22;23398;50.928;7.084;2023-04-25T09:49:39;17.00;50.70
37560;DHT22;23398;50.928;7.084;2023-04-25T09:52:06;17.30;50.40
37560;DHT22;23398;50.928;7.084;2023-04-25T09:54:32;17.60;49.90
37560;DHT22;23398;50.928;7.084;2023-04-25T09:57:07;17.80;49.00
37560;DHT22;23398;50.928;7.084;2023-04-25T09:59:38;17.90;48.20
37560;DHT22;23398;50.928;7.084;2023-04-25T10:02:07;18.00;47.70
37560;DHT22;23398;50.928;7.084;2023-04-25T10:04:35;18.00;47.40
37560;DHT22;23398;50.928;7.084;2023-04-25T10:07:03;18.00;46.90
37560;DHT22;23398;50.928;7.084;2023-04-25T10:09:31;17.90;46.90
37560;DHT22;23398;50.928;7.084;2023-04-25T10:11:59;17.80;47.10
37560;DHT22;23398;50.928;7.084;2023-04-25T10:14:26;17.60;47.40
37560;DHT22;23398;50.928;7.084;2023-04-25T10:16:52;17.50;47.60
37560;DHT22;23398;50.928;7.084;2023-04-25T10:19:21;17.40;47.50
37560;DHT22;23398;50.928;7.084;2023-04-25T10:21:52;17.20;47.30
37560;DHT22;23398;50.928;7.084;2023-04-25T10:24:20;17.20;47.60
37560;DHT22;23398;50.928;7.084;2023-04-25T10:26:47;17.10;48.50
37560;DHT22;23398;50.928;7.084;2023-04-25T10:29:23;17.00;47.90
37560;DHT22;23398;50.928;7.084;2023-04-25T10:31:49;16.90;48.10
37560;DHT22;23398;50.928;7.084;2023-04-25T10:34:16;16.90;48.00
37560;DHT22;23398;50.928;7.084;2023-04-25T10:36:42;16.80;48.20
37560;DHT22;23398;50.928;7.084;2023-04-25T10:39:08;17.00;48.50
37560;DHT22;23398;50.928;7.084;2023-04-25T10:41:46;16.80;48.40
37560;DHT22;23398;50.928;7.084;2023-04-25T10:44:13;16.80;47.90
37560;DHT22;23398;50.928;7.084;2023-04-25T10:46:39;16.90;48.40
37560;DHT22;23398;50.928;7.084;2023-04-25T10:49:08;17.00;48.30
37560;DHT22;23398;50.928;7.084;2023-04-25T10:51:36;17.20;48.40
37560;DHT22;23398;50.928;7.084;2023-04-25T10:56:33;17.50;48.80
37560;DHT22;23398;50.928;7.084;2023-04-25T11:01:42;18.00;47.10
37560;DHT22;23398;50.928;7.084;2023-04-25T11:04:31;18.10;46.70
37560;DHT22;23398;50.928;7.084;2023-04-25T11:08:03;18.20;45.80
37560;DHT22;23398;50.928;7.084;2023-04-25T11:10:01;18.20;45.70
37560;DHT22;23398;50.928;7.084;2023-04-25T11:12:30;17.90;42.50
37560;DHT22;23398;50.928;7.084;2023-04-25T11:15:03;17.80;44.40
37560;DHT22;23398;50.928;7.084;2023-04-25T11:17:30;17.70;44.80
37560;DHT22;23398;50.928;7.084;2023-04-25T11:19:55;17.40;44.30
37560;DHT22;23398;50.928;7.084;2023-04-25T11:22:22;17.30;44.90
37560;DHT22;23398;50.928;7.084;2023-04-25T11:24:48;17.10;45.30
37560;DHT22;23398;50.928;7.084;2023-04-25T11:27:13;17.00;45.60
37560;DHT22;23398;50.928;7.084;2023-04-25T11:29:39;16.90;45.90
37560;DHT22;23398;50.928;7.084;2023-04-25T11:32:05;16.90;46.40
37560;DHT22;23398;50.928;7.084;2023-04-25T11:34:32;16.90;46.20
37560;DHT22;23398;50.928;7.084;2023-04-25T11:36:58;16.90;46.20
37560;DHT22;23398;50.928;7.084;2023-04-25T11:39:25;17.00;46.50
37560;DHT22;23398;50.928;7.084;2023-04-25T11:41:52;17.10;46.70
37560;DHT22;23398;50.928;7.084;2023-04-25T11:44:19;17.20;46.90
37560;DHT22;23398;50.928;7.084;2023-04-25T11:46:45;17.40;46.40
37560;DHT22;23398;50.928;7.084;2023-04-25T11:49:10;17.50;45.80
37560;DHT22;23398;50.928;7.084;2023-04-25T11:51:43;17.60;45.50
37560;DHT22;23398;50.928;7.084;2023-04-25T11:54:09;17.70;44.90
37560;DHT22;23398;50.928;7.084;2023-04-25T11:56:35;17.70;44.80
37560;DHT22;23398;50.928;7.084;2023-04-25T11:59:03;17.70;44.70
37560;DHT22;23398;50.928;7.084;2023-04-25T12:01:40;17.70;45.00
37560;DHT22;23398;50.928;7.084;2023-04-25T12:06:41;17.70;45.30
37560;DHT22;23398;50.928;7.084;2023-04-25T12:09:09;17.70;45.50
37560;DHT22;23398;50.928;7.084;2023-04-25T12:11:47;17.70;45.00
37560;DHT22;23398;50.928;7.084;2023-04-25T12:14:21;17.70;45.50
37560;DHT22;23398;50.928;7.084;2023-04-25T12:16:49;17.70;45.60
37560;DHT22;23398;50.928;7.084;2023-04-25T12:19:16;17.70;45.90
37560;DHT22;23398;50.928;7.084;2023-04-25T12:21:43;17.60;45.90
37560;DHT22;23398;50.928;7.084;2023-04-25T12:24:13;17.10;45.30
37560;DHT22;23398;50.928;7.084;2023-04-25T12:29:25;17.60;45.30
37560;DHT22;23398;50.928;7.084;2023-04-25T12:31:52;17.50;44.90
37560;DHT22;23398;50.928;7.084;2023-04-25T12:34:19;17.50;45.20
37560;DHT22;23398;50.928;7.084;2023-04-25T12:36:45;17.50;45.20
37560;DHT22;23398;50.928;7.084;2023-04-25T12:39:18;17.50;45.30
37560;DHT22;23398;50.928;7.084;2023-04-25T12:41:45;17.50;44.70
37560;DHT22;23398;50.928;7.084;2023-04-25T12:44:12;17.50;44.30
37560;DHT22;23398;50.928;7.084;2023-04-25T12:46:38;17.60;44.60
37560;DHT22;23398;50.928;7.084;2023-04-25T12:49:04;17.60;44.20
37560;DHT22;23398;50.928;7.084;2023-04-25T12:51:32;17.60;44.10
37560;DHT22;23398;50.928;7.084;2023-04-25T12:54:02;17.70;44.20
37560;DHT22;23398;50.928;7.084;2023-04-25T12:56:28;17.70;43.50
37560;DHT22;23398;50.928;7.084;2023-04-25T12:58:54;17.80;43.70
37560;DHT22;23398;50.928;7.084;2023-04-25T13:01:21;17.70;43.60
37560;DHT22;23398;50.928;7.084;2023-04-25T13:03:47;17.70;43.50
37560;DHT22;23398;50.928;7.084;2023-04-25T13:06:13;17.50;40.80
37560;DHT22;23398;50.928;7.084;2023-04-25T13:08:39;17.50;42.50
37560;DHT22;23398;50.928;7.084;2023-04-25T13:11:05;17.50;43.00
37560;DHT22;23398;50.928;7.084;2023-04-25T13:13:31;17.50;43.50
37560;DHT22;23398;50.928;7.084;2023-04-25T13:15:58;17.50;43.80
37560;DHT22;23398;50.928;7.084;2023-04-25T13:18:23;17.50;44.10
37560;DHT22;23398;50.928;7.084;2023-04-25T13:20:52;17.50;44.10
37560;DHT22;23398;50.928;7.084;2023-04-25T13:23:18;17.50;43.80
37560;DHT22;23398;50.928;7.084;2023-04-25T13:25:45;17.50;43.90
37560;DHT22;23398;50.928;7.084;2023-04-25T13:28:11;17.50;44.00
37560;DHT22;23398;50.928;7.084;2023-04-25T13:30:36;17.50;44.00
37560;DHT22;23398;50.928;7.084;2023-04-25T13:33:02;17.50;44.20
37560;DHT22;23398;50.928;7.084;2023-04-25T13:35:29;17.60;43.80
37560;DHT22;23398;50.928;7.084;2023-04-25T13:37:55;17.60;43.40
37560;DHT22;23398;50.928;7.084;2023-04-25T13:40:21;17.60;43.40
37560;DHT22;23398;50.928;7.084;2023-04-25T13:42:47;17.60;43.40
37560;DHT22;23398;50.928;7.084;2023-04-25T13:45:13;17.60;44.00
37560;DHT22;23398;50.928;7.084;2023-04-25T13:47:38;17.50;42.80
37560;DHT22;23398;50.928;7.084;2023-04-25T13:50:05;17.40;43.40
37560;DHT22;23398;50.928;7.084;2023-04-25T13:52:34;17.30;43.10
37560;DHT22;23398;50.928;7.084;2023-04-25T13:55:00;17.20;42.40
37560;DHT22;23398;50.928;7.084;2023-04-25T13:57:28;17.10;42.50
37560;DHT22;23398;50.928;7.084;2023-04-25T13:59:53;16.90;42.20
37560;DHT22;23398;50.928;7.084;2023-04-25T14:02:19;16.80;42.60
37560;DHT22;23398;50.928;7.084;2023-04-25T14:04:44;16.60;42.30
37560;DHT22;23398;50.928;7.084;2023-04-25T14:07:10;16.50;43.20
37560;DHT22;23398;50.928;7.084;2023-04-25T14:09:36;16.40;44.40
37560;DHT22;23398;50.928;7.084;2023-04-25T14:12:02;16.40;44.20
37560;DHT22;23398;50.928;7.084;2023-04-25T14:14:28;16.30;44.50
37560;DHT22;23398;50.928;7.084;2023-04-25T14:16:54;16.20;44.80
37560;DHT22;23398;50.928;7.084;2023-04-25T14:19:20;16.20;45.20
37560;DHT22;23398;50.928;7.084;2023-04-25T14:21:46;16.10;45.20
37560;DHT22;23398;50.928;7.084;2023-04-25T14:24:12;16.00;45.00
37560;DHT22;23398;50.928;7.084;2023-04-25T14:26:38;16.00;45.20
37560;DHT22;23398;50.928;7.084;2023-04-25T14:29:05;16.00;45.10
37560;DHT22;23398;50.928;7.084;2023-04-25T14:31:34;15.90;45.40
37560;DHT22;23398;50.928;7.084;2023-04-25T14:34:01;15.90;46.10
37560;DHT22;23398;50.928;7.084;2023-04-25T14:36:28;15.90;46.10
37560;DHT22;23398;50.928;7.084;2023-04-25T14:38:54;16.00;46.10
37560;DHT22;23398;50.928;7.084;2023-04-25T14:41:20;16.10;45.90
37560;DHT22;23398;50.928;7.084;2023-04-25T14:43:46;16.20;46.40
37560;DHT22;23398;50.928;7.084;2023-04-25T14:46:12;16.30;46.60
37560;DHT22;23398;50.928;7.084;2023-04-25T14:48:38;16.40;46.60
37560;DHT22;23398;50.928;7.084;2023-04-25T14:51:04;16.60;46.50
37560;DHT22;23398;50.928;7.084;2023-04-25T14:53:31;16.60;46.10
37560;DHT22;23398;50.928;7.084;2023-04-25T14:55:57;16.70;46.00
37560;DHT22;23398;50.928;7.084;2023-04-25T14:58:22;16.70;45.00
37560;DHT22;23398;50.928;7.084;2023-04-25T15:00:48;16.70;45.20
37560;DHT22;23398;50.928;7.084;2023-04-25T15:03:14;16.70;44.80
37560;DHT22;23398;50.928;7.084;2023-04-25T15:05:41;16.70;44.60
37560;DHT22;23398;50.928;7.084;2023-04-25T15:08:07;16.60;44.00
37560;DHT22;23398;50.928;7.084;2023-04-25T15:10:32;16.60;44.00
37560;DHT22;23398;50.928;7.084;2023-04-25T15:12:58;16.50;43.50
37560;DHT22;23398;50.928;7.084;2023-04-25T15:15:24;16.50;43.10
37560;DHT22;23398;50.928;7.084;2023-04-25T15:17:49;16.40;43.10
37560;DHT22;23398;50.928;7.084;2023-04-25T15:20:16;16.20;43.70
37560;DHT22;23398;50.928;7.084;2023-04-25T15:22:43;16.10;43.20
37560;DHT22;23398;50.928;7.084;2023-04-25T15:25:11;15.90;43.40
37560;DHT22;23398;50.928;7.084;2023-04-25T15:27:37;15.80;43.60
37560;DHT22;23398;50.928;7.084;2023-04-25T15:30:10;15.60;44.00
37560;DHT22;23398;50.928;7.084;2023-04-25T15:32:37;15.50;44.60
37560;DHT22;23398;50.928;7.084;2023-04-25T15:35:04;15.40;44.90
37560;DHT22;23398;50.928;7.084;2023-04-25T15:37:31;15.30;45.20
37560;DHT22;23398;50.928;7.084;2023-04-25T15:40:05;15.30;45.80
37560;DHT22;23398;50.928;7.084;2023-04-25T15:42:38;15.20;45.60
37560;DHT22;23398;50.928;7.084;2023-04-25T15:45:06;15.20;45.40